Date,TemperatureHighF,TemperatureAvgF,TemperatureLowF,DewpointHighF,DewpointAvgF,DewpointLowF,HumidityHigh,HumidityAvg,HumidityLow,PressureMaxIn,PressureMinIn,WindSpeedMaxMPH,WindSpeedAvgMPH,GustSpeedMaxMPH,PrecipitationSumIn
2013-1-1,37,32,22,25,18,8,70,56,43,0.00,40.00,15,7,32,0.00
2013-1-2,31,22,15,13,8,2,66,54,43,0.00,40.00,17,7,30,0.00
2013-1-3,26,16,7,9,-1,-6,62,48,26,0.00,40.00,13,5,20,0.00
2013-1-4,40,29,18,23,18,9,77,62,46,0.00,40.00,12,5,25,0.00
2013-1-5,43,33,25,23,20,17,78,59,39,0.00,40.00,12,4,21,0.00
2013-1-6,44,35,25,30,27,19,94,73,51,0.00,40.00,9,4,18,0.00
2013-1-7,41,34,27,29,25,19,90,72,43,0.00,40.00,10,4,18,0.00
2013-1-8,47,38,24,29,27,23,96,69,47,0.00,40.00,12,6,27,0.00
2013-1-9,45,37,28,36,30,25,90,75,57,0.00,40.00,12,4,20,0.00
2013-1-10,48,42,34,31,23,21,60,47,35,0.00,40.00,17,9,38,0.00
2013-1-11,41,34,28,36,27,22,97,77,60,0.00,40.00,6,2,10,0.00
2013-1-12,46,42,37,45,41,36,100,98,92,0.00,40.00,5,2,10,0.00
2013-1-13,51,46,42,50,45,40,100,96,93,0.00,40.00,14,6,21,0.00
2013-1-14,62,52,43,53,46,-100,100,84,39,0.00,40.00,15,8,25,0.00
2013-1-15,42,40,36,33,28,25,85,61,52,0.00,40.00,6,2,10,0.00
2013-1-16,35,33,31,34,31,23,100,93,62,0.00,40.00,7,2,16,0.00
2013-1-17,43,37,32,33,28,17,99,72,50,0.00,40.00,13,5,24,0.00
2013-1-18,30,23,19,14,-1,-8,52,35,24,0.00,40.00,15,8,27,0.00
2013-1-19,48,35,20,32,21,4,74,56,41,0.00,40.00,17,9,29,0.00
2013-1-20,55,43,29,34,26,7,75,53,34,0.00,40.00,17,11,36,0.00
2013-1-21,29,26,22,22,8,4,94,49,35,0.00,40.00,13,5,25,0.00
2013-1-22,25,21,13,23,7,-4,94,59,30,0.00,40.00,15,7,27,0.00
2013-1-23,17,11,7,1,-8,-11,66,43,29,0.00,40.00,15,7,27,0.00
2013-1-24,20,10,4,-9,-10,-12,51,39,24,0.00,40.00,18,9,32,0.00
2013-1-25,24,16,8,13,-8,-13,84,35,21,0.00,40.00,13,6,22,0.00
2013-1-26,26,17,11,14,4,-9,90,59,29,0.00,40.00,15,7,29,0.00
2013-1-27,15,12,11,2,0,-3,62,56,46,0.00,40.00,10,6,22,0.00
2013-1-28,31,28,26,27,18,1,97,74,30,0.00,40.00,7,3,12,0.00
2013-1-29,34,31,27,33,30,26,98,94,88,0.00,40.00,7,3,10,0.00
2013-1-30,59,47,34,58,46,34,100,97,89,0.00,40.00,18,11,33,0.00
2013-1-31,56,43,33,54,25,13,94,50,38,0.00,40.00,17,10,38,0.00